Tzoanna Vi — SYHY — position and weather

sailwx.info

Track history (hours):
 
Tides and Currents Weather Stations Pressure Air Temp Water Temp Dewpoint Dewpoint Depression Visibility Wind Speed Wind Dir Waves Ship Positions

Tzoanna Vi

Last reported at 2014-Jul-19 16:33 UTC. Time now 2014-Jul-23 05:44 UTC.
Position N 37°32' E 024°23'.

Length 84 m; draft 5.5 m.

Type: Cargo ship. MMSI: 237991700.

Date/timePositionNaut miles runAvg speedWind from/ knotsBaromVisibWave heightAir tempDewpointWater temp
2014-Jul-19 16:33N 37°32' E 024°23'31 7.7
2014-Jul-19 12:32N 37°02' E 024°19'8 7.6
2014-Jul-19 11:33N 36°54' E 024°19'8 8.0
2014-Jul-19 10:33N 36°46' E 024°19'8 7.7
2014-Jul-19 09:34N 36°39' E 024°19'2 2.1
2014-Jul-19 08:31N 36°39' E 024°21'0 0.0
2014-Jul-19 05:05N 36°39' E 024°21'0 0.0
2014-Jul-19 04:31N 36°39' E 024°21'1 0.9
2014-Jul-19 03:32N 36°39' E 024°21'5 5.5
2014-Jul-19 02:33N 36°44' E 024°18'8 8.5
2014-Jul-19 01:33N 36°52' E 024°18'9 8.7
2014-Jul-19 00:33N 37°01' E 024°19'11 8.7
2014-Jul-18 23:21N 37°11' E 024°19'7 8.7
2014-Jul-18 22:30N 37°19' E 024°19'18 8.9
2014-Jul-18 20:32N 37°36' E 024°25'9 9.0
2014-Jul-18 19:33N 37°44' E 024°28'  
2014-Jul-11 00:12N 38°11' E 024°05'3 4.4
2014-Jul-10 23:33N 38°08' E 024°06'4 4.3
2014-Jul-10 22:32N 38°04' E 024°07'4 4.3
2014-Jul-10 21:33N 37°60' E 024°08'5 5.0
2014-Jul-10 20:33N 37°55' E 024°09'25 6.1
2014-Jul-10 16:27N 37°30' E 024°12'6 6.3
2014-Jul-10 15:33N 37°24' E 024°12'23 7.8
2014-Jul-10 12:33N 37°01' E 024°16'9 8.0
2014-Jul-10 11:22N 36°51' E 024°17'7 8.0
2014-Jul-10 10:33N 36°45' E 024°18'7 6.7
2014-Jul-10 09:33N 36°39' E 024°20'1 0.4
2014-Jul-10 06:30N 36°39' E 024°21'0 0.0
2014-Jul-10 05:30N 36°39' E 024°21'0 0.0
2014-Jul-10 04:30N 36°39' E 024°21'1 1.2
2014-Jul-10 03:33N 36°38' E 024°20'7 6.9
2014-Jul-10 02:32N 36°44' E 024°14'7 7.6
2014-Jul-10 01:33N 36°50' E 024°09'8 7.8
2014-Jul-10 00:33N 36°56' E 024°03'42 8.2
2014-Jul-09 19:24N 37°31' E 023°33'11 9.1
2014-Jul-09 18:14N 37°39' E 023°24'7 8.5
2014-Jul-09 17:25N 37°43' E 023°17'  
Track history (hours):
 
Tides and Currents Weather Stations Pressure Air Temp Water Temp Dewpoint Dewpoint Depression Visibility Wind Speed Wind Dir Waves Ship Positions

Tzoanna Vi

Last reported at 2014-Jul-19 16:33 UTC. Time now 2014-Jul-23 05:44 UTC.
Position N 37°32' E 024°23'.

Length 84 m; draft 5.5 m.

Type: Cargo ship. MMSI: 237991700.

Date/timePositionNaut miles runAvg speedWind from/ knotsBaromVisibWave heightAir tempDewpointWater temp
2014-Jul-19 16:33N 37°32' E 024°23'31 7.7
2014-Jul-19 12:32N 37°02' E 024°19'8 7.6
2014-Jul-19 11:33N 36°54' E 024°19'8 8.0
2014-Jul-19 10:33N 36°46' E 024°19'8 7.7
2014-Jul-19 09:34N 36°39' E 024°19'2 2.1
2014-Jul-19 08:31N 36°39' E 024°21'0 0.0
2014-Jul-19 05:05N 36°39' E 024°21'0 0.0
2014-Jul-19 04:31N 36°39' E 024°21'1 0.9
2014-Jul-19 03:32N 36°39' E 024°21'5 5.5
2014-Jul-19 02:33N 36°44' E 024°18'8 8.5
2014-Jul-19 01:33N 36°52' E 024°18'9 8.7
2014-Jul-19 00:33N 37°01' E 024°19'11 8.7
2014-Jul-18 23:21N 37°11' E 024°19'7 8.7
2014-Jul-18 22:30N 37°19' E 024°19'18 8.9
2014-Jul-18 20:32N 37°36' E 024°25'9 9.0
2014-Jul-18 19:33N 37°44' E 024°28'  
2014-Jul-11 00:12N 38°11' E 024°05'3 4.4
2014-Jul-10 23:33N 38°08' E 024°06'4 4.3
2014-Jul-10 22:32N 38°04' E 024°07'4 4.3
2014-Jul-10 21:33N 37°60' E 024°08'5 5.0
2014-Jul-10 20:33N 37°55' E 024°09'25 6.1
2014-Jul-10 16:27N 37°30' E 024°12'6 6.3
2014-Jul-10 15:33N 37°24' E 024°12'23 7.8
2014-Jul-10 12:33N 37°01' E 024°16'9 8.0
2014-Jul-10 11:22N 36°51' E 024°17'7 8.0
2014-Jul-10 10:33N 36°45' E 024°18'7 6.7
2014-Jul-10 09:33N 36°39' E 024°20'1 0.4
2014-Jul-10 06:30N 36°39' E 024°21'0 0.0
2014-Jul-10 05:30N 36°39' E 024°21'0 0.0
2014-Jul-10 04:30N 36°39' E 024°21'1 1.2
2014-Jul-10 03:33N 36°38' E 024°20'7 6.9
2014-Jul-10 02:32N 36°44' E 024°14'7 7.6
2014-Jul-10 01:33N 36°50' E 024°09'8 7.8
2014-Jul-10 00:33N 36°56' E 024°03'42 8.2
2014-Jul-09 19:24N 37°31' E 023°33'11 9.1
2014-Jul-09 18:14N 37°39' E 023°24'7 8.5
2014-Jul-09 17:25N 37°43' E 023°17'  

Dump ship's entire track history